EW9506 Weather Reports


Display with metric or nautical units.
time (UTC)temp
F
wind
direction
speed
MPH
gust
MPH
rain 1hr
in
rain 24hr
in
rain mn
in
humidity
%
barometer
mb
20190824143120 60 153 4.0 8.0 0.01 0.21 0.10 86 1006.9
20190824141646 59 188 5.0 8.0 0.01 0.21 0.10 87 1006.9
20190824140139 59 138 9.0 12.0 0.01 0.21 0.10 87 1006.8
20190824134648 58 169 6.0 9.0 0.02 0.21 0.10 88 1007.2
20190824133102 58 129 4.0 7.0 0.01 0.20 0.09 88 1007.1
20190824131609 57 161 0.0 2.0 0.01 0.20 0.09 90 1007.1
20190824130118 57 161 1.0 6.0 0.01 0.20 0.09 90 1007.0
20190824124623 56 162 4.0 5.0 0.00 0.19 0.08 92 1006.5
20190824123047 55 204 3.0 7.0 0.01 0.19 0.08 90 1006.5
20190824121612 55 159 6.0 8.0 0.01 0.19 0.08 91 1006.3
20190824120102 55 193 3.0 5.0 0.01 0.19 0.08 91 1006.4
20190824114630 56 184 4.0 8.0 0.02 0.19 0.08 90 1006.4
20190824113036 55 182 4.0 6.0 0.01 0.18 0.07 90 1006.6
20190824111539 55 204 4.0 8.0 0.01 0.18 0.07 90 1006.9
20190824110129 55 164 5.0 6.0 0.01 0.18 0.07 89 1006.8
20190824104543 56 142 9.0 12.0 0.01 0.17 0.06 88 1007.0
20190824101553 56 164 5.0 8.0 0.01 0.17 0.06 90 1007.4
20190824100133 55 151 5.0 8.0 0.02 0.17 0.06 91 1007.5
20190824094559 55 173 3.0 6.0 0.01 0.16 0.05 91 1007.6
20190824093053 55 196 5.0 10.0 0.01 0.16 0.05 91 1007.6
20190824091530 55 164 5.0 9.0 0.01 0.16 0.05 91 1007.6
20190824090035 56 182 6.0 15.0 0.00 0.15 0.04 90 1007.3
20190824084530 56 158 11.0 15.0 0.01 0.15 0.04 90 1007.2
20190824083027 56 185 3.0 7.0 0.01 0.15 0.04 89 1006.9
20190824081522 55 145 11.0 16.0 0.02 0.15 0.04 90 1006.9
20190824080035 55 171 5.0 7.0 0.02 0.15 0.04 91 1006.6
20190824074514 55 186 3.0 4.0 0.01 0.14 0.03 92 1006.7
20190824073026 55 231 2.0 4.0 0.02 0.14 0.03 92 1006.8
20190824071511 55 231 3.0 4.0 0.01 0.13 0.02 92 1006.6
20190824070010 56 231 3.0 5.0 0.02 0.13 0.02 92 1006.9
20190824064509 56 224 4.0 5.0 0.02 0.13 0.02 92 1007.2
20190824063006 56 200 2.0 4.0 0.02 0.12 0.01 92 1007.5
20190824061505 56 185 2.0 4.0 0.03 0.12 0.01 91 1007.6
20190824060007 57 173 3.0 4.0 0.02 0.11 0.11 90 1007.3
20190824054504 57 173 1.0 5.0 0.03 0.11 0.11 89 1007.6
20190824053142 57 161 5.0 6.0 0.03 0.10 0.10 90 1008.1
20190824051751 57 217 1.0 6.0 0.03 0.09 0.09 88 1008.3
20190824050236 58 183 4.0 8.0 0.03 0.09 0.09 86 1008.6
20190824044655 59 163 3.0 5.0 0.03 0.08 0.08 81 1008.3
20190824043252 59 111 6.0 9.0 0.02 0.07 0.07 85 1008.0
20190824041643 59 51 3.0 6.0 0.02 0.06 0.06 83 1007.9
20190824040145 59 75 7.0 10.0 0.03 0.06 0.06 85 1007.8
20190824034707 59 349 10.0 13.0 0.02 0.05 0.05 82 1007.5
20190824033158 59 355 7.0 9.0 0.02 0.05 0.05 86 1007.8
20190824030225 59 335 5.0 10.0 0.02 0.03 0.03 87 1007.3
20190824024657 59 316 8.0 11.0 0.02 0.03 0.03 85 1007.0
20190824023147 59 306 8.0 16.0 0.03 0.03 0.03 83 1007.7
20190824021613 58 296 15.0 21.0 0.02 0.02 0.02 90 1007.2
20190824020227 56 260 8.0 10.0 0.01 0.01 0.01 92 1008.5
20190824014701 56 257 8.0 16.0 0.01 0.01 0.01 91 1009.0
20190824013120 56 242 15.0 32.0 0.00 0.00 0.00 89 1010.6
20190824011635 61 243 19.0 37.0 0.00 0.00 0.00 76 1006.9
20190824010147 73 321 4.0 6.0 0.00 0.00 0.00 60 1005.6
20190824004706 73 355 3.0 5.0 0.00 0.00 0.00 59 1005.2
20190824003128 74 22 3.0 5.0 0.00 0.00 0.00 57 1005.0
20190824001633 74 28 3.0 6.0 0.00 0.00 0.00 58 1005.0
20190824000120 74 45 1.0 10.0 0.00 0.00 0.00 57 1005.4
20190823234623 74 54 3.0 9.0 0.00 0.00 0.00 56 1005.2
20190823233100 75 42 6.0 12.0 0.00 0.00 0.00 56 1005.3
20190823231728 75 69 7.0 13.0 0.00 0.00 0.00 55 1005.2
20190823230117 76 70 6.0 12.0 0.00 0.00 0.00 55 1005.1
20190823224648 75 10 8.0 13.0 0.00 0.00 0.00 55 1005.2
20190823221615 75 42 11.0 13.0 0.00 0.00 0.00 56 1005.5
20190823220106 74 61 10.0 16.0 0.00 0.00 0.00 57 1005.4
20190823214632 74 59 9.0 15.0 0.00 0.00 0.00 58 1005.7
20190823213219 75 55 8.0 16.0 0.00 0.00 0.00 56 1005.6
20190823211612 75 64 9.0 16.0 0.00 0.00 0.00 57 1005.4
20190823210104 76 86 6.0 14.0 0.00 0.00 0.00 56 1005.7
20190823204553 74 53 3.0 10.0 0.00 0.00 0.00 56 1005.9
20190823203145 75 55 8.0 14.0 0.00 0.00 0.00 57 1006.0
20190823201601 74 17 9.0 15.0 0.00 0.00 0.00 56 1006.0
20190823200103 74 50 7.0 14.0 0.00 0.00 0.00 56 1006.1
20190823194625 74 68 7.0 13.0 0.00 0.00 0.00 56 1006.1
20190823193047 74 38 12.0 18.0 0.00 0.00 0.00 57 1005.5
20190823191550 74 53 10.0 16.0 0.00 0.00 0.00 57 1005.8
20190823184624 74 355 7.0 16.0 0.00 0.00 0.00 57 1006.0
20190823183125 72 345 9.0 13.0 0.00 0.00 0.00 61 1006.2
20190823181601 72 342 5.0 12.0 0.00 0.00 0.00 61 1006.6
20190823180110 72 334 7.0 15.0 0.00 0.00 0.00 62 1006.5
20190823174549 72 333 9.0 14.0 0.00 0.00 0.00 60 1006.4
20190823173112 71 340 10.0 16.0 0.00 0.00 0.00 63 1006.4
20190823171540 71 321 9.0 15.0 0.00 0.00 0.00 63 1006.5
20190823170028 70 355 9.0 15.0 0.00 0.00 0.00 65 1006.6
20190823164516 68 15 8.0 13.0 0.00 0.00 0.00 70 1006.7
20190823163030 68 317 9.0 13.0 0.00 0.00 0.00 71 1006.8
20190823160033 67 311 9.0 13.0 0.00 0.00 0.00 75 1006.7
20190823154505 66 330 8.0 12.0 0.00 0.00 0.00 76 1006.7
20190823153008 65 360 5.0 9.0 0.00 0.00 0.00 79 1006.8
20190823151508 64 288 6.0 12.0 0.00 0.00 0.00 81 1006.5
20190823150001 63 301 7.0 11.0 0.00 0.00 0.00 84 1006.6
20190823144649 62 315 9.0 13.0 0.00 0.00 0.00 86 1006.5